Flight Track Log - Related Links

Times and Time Zones

All times are in EDT time to prevent confusion due to time zone crossing. See the GEC8221 flight status page for this flight to view local times or setup timezone preferences in your user account.

Time Position Orientation Groundspeed Altitude Reporting Facility
EDT Latitude Longitude Course Direction KTS MPH feet Rate Location/Type
Sat 07:38:36 PM 25.7133 -97.5278 North 456 525 37,000  Level Houston Center
Sat 07:44:17 PM 26.3960 -97.4880 345° North 462 532 37,000  Level FlightAware ADS-B
Sat 07:45:03 PM 26.4900 -97.5150 346° North 459 528 37,000  Level FlightAware ADS-B
Sat 07:45:45 PM 26.5780 -97.5410 345° North 456 525 37,000 -70 Level FlightAware ADS-B
Sat 07:46:29 PM 26.6670 -97.5670 345° North 453 521 36,900 -71 Descending FlightAware ADS-B
Sat 07:47:09 PM 26.7480 -97.5900 346° North 452 520 36,900 71 Level FlightAware ADS-B
Sat 07:47:53 PM 26.8370 -97.6160 345° North 454 522 37,000 71 Climbing FlightAware ADS-B
Sat 07:48:33 PM 26.9200 -97.6410 345° North 453 521 37,000  Level FlightAware ADS-B
Sat 07:49:13 PM 27.0000 -97.6640 346° North 454 522 37,000  Level FlightAware ADS-B
Sat 07:49:57 PM 27.0900 -97.6910 345° North 455 524 37,000  Level FlightAware ADS-B
Sat 07:50:37 PM 27.1690 -97.7140 345° North 456 525 37,000  Level FlightAware ADS-B
Sat 07:51:19 PM 27.2580 -97.7400 345° North 456 525 37,000  Level FlightAware ADS-B
Sat 07:52:01 PM 27.3440 -97.7660 345° North 457 526 37,000 -70 Level FlightAware ADS-B
Sat 07:52:45 PM 27.4340 -97.7920 346° North 460 529 36,900  Descending FlightAware ADS-B
Sat 07:53:24 PM 27.5160 -97.8170 345° North 462 532 37,000 71 Climbing FlightAware ADS-B
Sat 07:54:09 PM 27.6080 -97.8440 345° North 461 531 37,000  Level FlightAware ADS-B
Sat 07:54:46 PM 27.6860 -97.8670 345° North 461 531 37,000  Level FlightAware ADS-B
Sat 07:55:33 PM 27.7800 -97.8950 345° North 457 526 37,000  Level FlightAware ADS-B
Sat 07:56:18 PM 27.8730 -97.9230 345° North 455 524 37,000 -70 Level FlightAware ADS-B
Sat 07:56:59 PM 27.9560 -97.9480 345° North 453 521 36,900 -74 Descending FlightAware ADS-B
Sat 07:57:39 PM 28.0380 -97.9720 346° North 454 522 36,900 74 Level FlightAware ADS-B
Sat 07:58:20 PM 28.1230 -97.9980 345° North 457 526 37,000 60 Climbing FlightAware ADS-B
Sat 07:59:19 PM 28.2410 -98.0330 345° North 457 526 37,000  Level FlightAware ADS-B
Sat 08:00:01 PM 28.3290 -98.0600 345° North 458 527 37,000  Level FlightAware ADS-B
Sat 08:00:41 PM 28.4100 -98.0840 345° North 459 528 37,000  Level FlightAware ADS-B
Sat 08:01:21 PM 28.4940 -98.1100 345° North 459 528 37,000  Level FlightAware ADS-B
Sat 08:02:06 PM 28.5830 -98.1370 345° North 459 528 37,000  Level FlightAware ADS-B
Sat 08:02:17 PM 28.6088 -98.1443 346° North 459 528 37,000  Level FlightAware ADS-B
Sat 08:02:48 PM 28.6712 -98.1632 345° North 459 528 37,000  Level FlightAware ADS-B
Sat 08:03:18 PM 28.7335 -98.1821 345° North 457 526 37,000  Level FlightAware ADS-B
Sat 08:03:50 PM 28.7981 -98.2018 345° North 457 526 37,000  Level FlightAware ADS-B
Sat 08:04:21 PM 28.8614 -98.2211 345° North 457 526 37,000  Level FlightAware ADS-B
Sat 08:04:29 PM 28.8777 -98.2261 345° North 457 526 37,000  Level FlightAware ADS-B
Sat 08:04:51 PM 28.9239 -98.2402 345° North 457 526 37,000  Level FlightAware ADS-B
Sat 08:05:00 PM 28.9427 -98.2460 345° North 457 526 37,000 -194 Level FlightAware ADS-B
Sat 08:05:22 PM 28.9873 -98.2596 345° North 457 526 36,900 -115 Descending FlightAware ADS-B
Sat 08:05:52 PM 29.0494 -98.2785 345° North 457 526 36,900 98 Level FlightAware ADS-B
Sat 08:06:23 PM 29.1113 -98.2974 345° North 458 527 37,000 97 Climbing FlightAware ADS-B
Sat 08:06:54 PM 29.1747 -98.3169 345° North 461 531 37,000  Level FlightAware ADS-B
Sat 08:07:24 PM 29.2370 -98.3359 345° North 462 532 37,000  Level FlightAware ADS-B
Sat 08:08:00 PM 29.3119 -98.3590 345° North 463 533 37,000  Level FlightAware ADS-B
Sat 08:08:31 PM 29.3757 -98.3785 345° North 463 533 37,000  Level FlightAware ADS-B
Sat 08:08:32 PM 29.3773 -98.3791 342° North 463 533 37,000  Level FlightAware ADS-B
Sat 08:09:02 PM 29.4403 -98.3985 345° North 463 533 37,000  Level FlightAware ADS-B
Sat 08:09:07 PM 29.4506 -98.4017 345° North 463 533 37,000  Level FlightAware ADS-B
Sat 08:09:37 PM 29.5117 -98.4205 345° North 462 532 37,000  Level FlightAware ADS-B
Sat 08:09:56 PM 29.5525 -98.4331 345° North 460 529 37,000  Level FlightAware ADS-B
Sat 08:10:09 PM 29.5788 -98.4412 345° North 462 532 37,000  Level FlightAware ADS-B
Sat 08:10:20 PM 29.6020 -98.4479 346° North 460 529 37,000  Level FlightAware ADS-B
Sat 08:10:28 PM 29.6192 -98.4515 350° North 460 529 37,000  Level FlightAware ADS-B
Sat 08:10:32 PM 29.6272 -98.4528 352° North 462 532 37,000  Level FlightAware ADS-B
Sat 08:10:36 PM 29.6349 -98.4538 354° North 462 532 37,000  Level FlightAware ADS-B
Sat 08:10:46 PM 29.6559 -98.4553 356° North 464 534 37,000  Level FlightAware ADS-B
Sat 08:10:51 PM 29.6671 -98.4554 360° North 465 535 37,000  Level FlightAware ADS-B
Sat 08:10:53 PM 29.6722 -98.4554 360° North 465 535 37,000  Level FlightAware ADS-B
Sat 08:11:05 PM 29.6968 -98.4535 North 466 536 37,000  Level FlightAware ADS-B
Sat 08:11:09 PM 29.7049 -98.4524 North 467 537 37,000  Level FlightAware ADS-B
Sat 08:11:41 PM 29.7735 -98.4424 North 467 537 37,000  Level FlightAware ADS-B
Sat 08:11:50 PM 29.7945 -98.4394 North 467 537 37,000  Level FlightAware ADS-B
Sat 08:12:21 PM 29.8595 -98.4300 North 465 535 37,000  Level FlightAware ADS-B
Sat 08:12:27 PM 29.8727 -98.4280 North 465 535 37,000  Level FlightAware ADS-B
Sat 08:12:52 PM 29.9251 -98.4203 North 463 533 37,000  Level FlightAware ADS-B
Sat 08:12:58 PM 29.9378 -98.4184 North 463 533 37,000  Level FlightAware ADS-B
Sat 08:13:22 PM 29.9892 -98.4109 North 462 532 37,000  Level FlightAware ADS-B
Sat 08:13:30 PM 30.0074 -98.4083 North 461 531 37,000  Level FlightAware ADS-B
Sat 08:13:52 PM 30.0536 -98.4015 North 461 531 37,000  Level FlightAware ADS-B
Sat 08:14:05 PM 30.0806 -98.3976 North 460 529 37,000 -194 Level FlightAware ADS-B
Sat 08:14:23 PM 30.1178 -98.3922 North 460 529 36,900  Descending FlightAware ADS-B
Sat 08:14:54 PM 30.1843 -98.3825 North 460 529 37,000 162 Climbing FlightAware ADS-B
Sat 08:15:00 PM 30.1984 -98.3804 North 461 531 37,000  Level FlightAware ADS-B
Sat 08:15:24 PM 30.2491 -98.3728 North 465 535 37,000  Level FlightAware ADS-B
Sat 08:15:35 PM 30.2718 -98.3694 North 466 536 37,000  Level FlightAware ADS-B
Sat 08:15:55 PM 30.3147 -98.3630 North 467 537 37,000  Level FlightAware ADS-B
Sat 08:16:09 PM 30.3447 -98.3585 North 467 537 37,000  Level FlightAware ADS-B
Sat 08:16:26 PM 30.3818 -98.3531 North 469 540 37,000  Level FlightAware ADS-B
Sat 08:16:50 PM 30.4326 -98.3455 North 469 540 37,000  Level FlightAware ADS-B
Sat 08:16:57 PM 30.4477 -98.3433 North 469 540 37,000  Level FlightAware ADS-B
Sat 08:17:21 PM 30.5007 -98.3354 North 469 540 37,000  Level FlightAware ADS-B
Sat 08:17:32 PM 30.5231 -98.3321 North 468 539 37,000  Level FlightAware ADS-B
Sat 08:17:52 PM 30.5669 -98.3256 North 468 539 37,000  Level FlightAware ADS-B
Sat 08:18:02 PM 30.5888 -98.3224 North 468 539 37,000  Level FlightAware ADS-B
Sat 08:18:23 PM 30.6339 -98.3157 North 468 539 37,000  Level FlightAware ADS-B
Sat 08:18:55 PM 30.7026 -98.3055 North 468 539 37,000  Level FlightAware ADS-B
Sat 08:18:58 PM 30.7094 -98.3045 North 467 537 37,000  Level FlightAware ADS-B
Sat 08:19:29 PM 30.7751 -98.2947 North 467 537 37,000  Level FlightAware ADS-B
Sat 08:19:30 PM 30.7773 -98.2944 North 467 537 37,000  Level FlightAware ADS-B
Sat 08:20:05 PM 30.8520 -98.2830 North 467 537 37,000  Level FlightAware ADS-B
Sat 08:20:12 PM 30.8675 -98.2809 North 467 537 37,000  Level FlightAware ADS-B
Sat 08:20:17 PM 30.8790 -98.2792 North 468 539 37,000  Level FlightAware ADS-B
Sat 08:20:47 PM 30.9413 -98.2699 North 467 537 37,000  Level FlightAware ADS-B
Sat 08:20:51 PM 30.9503 -98.2686 North 468 539 37,000  Level FlightAware ADS-B
Sat 08:21:23 PM 31.0186 -98.2584 North 467 537 37,000  Level FlightAware ADS-B
Sat 08:22:04 PM 31.1070 -98.2451 North 468 539 37,000  Level FlightAware ADS-B
Sat 08:22:36 PM 31.1770 -98.2337 North 469 540 37,000 -360 Level FlightAware ADS-B
Sat 08:22:54 PM 31.2129 -98.2202 18° North 477 549 36,700 -1,625 Descending FlightAware ADS-B
Sat 08:23:24 PM 31.2729 -98.1863 26° Northeast 475 547 35,700 -2,000 Descending FlightAware ADS-B
Sat 08:23:54 PM 31.3326 -98.1528 26° Northeast 466 536 34,700 -2,164 Descending FlightAware ADS-B
Sat 08:24:25 PM 31.3933 -98.1186 26° Northeast 458 527 33,500 -2,419 Descending FlightAware ADS-B
Sat 08:24:56 PM 31.4518 -98.0856 26° Northeast 457 526 32,200 -2,476 Descending FlightAware ADS-B
Sat 08:25:28 PM 31.5124 -98.0515 26° Northeast 451 519 30,900 -2,813 Descending FlightAware ADS-B
Sat 08:26:00 PM 31.5724 -98.0179 26° Northeast 457 526 29,200 -2,721 Descending FlightAware ADS-B
Sat 08:26:54 PM 31.6740 -97.9609 26° Northeast 449 517 27,000 -2,377 Descending FlightAware ADS-B
Sat 08:27:46 PM 31.7670 -97.9080 26° Northeast 437 503 25,000 -2,526 Descending FlightAware ADS-B
Sat 08:28:29 PM 31.8450 -97.8650 25° Northeast 435 501 23,000 -2,667 Descending FlightAware ADS-B
Sat 08:28:58 PM 31.9001 -97.8330 26° Northeast 424 488 21,800 -2,571 Descending FlightAware ADS-B
Sat 08:29:53 PM 31.9970 -97.7780 26° Northeast 414 476 19,400 -2,653 Descending FlightAware ADS-B
Sat 08:30:33 PM 32.0640 -97.7400 26° Northeast 412 474 17,600 -2,400 Descending FlightAware ADS-B
Sat 08:31:13 PM 32.1310 -97.7020 26° Northeast 397 457 16,200 -2,077 Descending FlightAware ADS-B
Sat 08:31:51 PM 32.1910 -97.6680 26° Northeast 382 440 14,900 -2,357 Descending FlightAware ADS-B
Sat 08:32:37 PM 32.2660 -97.6250 26° Northeast 380 437 12,900 -2,118 Descending FlightAware ADS-B
Sat 08:33:16 PM 32.3290 -97.5880 26° Northeast 379 436 11,900 -1,186 Descending FlightAware ADS-B
Sat 08:34:03 PM 32.4030 -97.5460 26° Northeast 391 450 11,200 -600 Descending FlightAware ADS-B
Sat 08:34:46 PM 32.4700 -97.5030 28° Northeast 387 445 11,000 -70 Descending FlightAware ADS-B
Sat 08:35:29 PM 32.5270 -97.4370 44° Northeast 387 445 11,100  Climbing FlightAware ADS-B
Sat 08:36:10 PM 32.5790 -97.3750 45° Northeast 386 444 11,000 -73 Descending FlightAware ADS-B
Sat 08:36:51 PM 32.6270 -97.3190 44° Northeast 339 390 11,000  Level FlightAware ADS-B
Sat 08:37:36 PM 32.6740 -97.2620 46° Northeast 289 333 11,000  Level FlightAware ADS-B
Sat 08:38:14 PM 32.7080 -97.2200 46° Northeast 270 311 11,000  Level FlightAware ADS-B
Sat 08:38:59 PM 32.7480 -97.1760 43° Northeast 270 311 11,000 -107 Level FlightAware ADS-B
Sat 08:39:10 PM 32.7610 -97.1700 21° North 270 311 10,900 -828 Descending FlightAware ADS-B
Sat 08:39:28 PM 32.7830 -97.1690 North 267 307 10,600 -1,286 Descending FlightAware ADS-B
Sat 08:40:06 PM 32.8290 -97.1690 360° North 270 311 9,700 -1,324 Descending FlightAware ADS-B
Sat 08:40:36 PM 32.8670 -97.1670 North 269 310 9,100 -1,309 Descending FlightAware ADS-B
Sat 08:41:01 PM 32.8990 -97.1660 North 267 307 8,500 -1,309 Descending FlightAware ADS-B
Sat 08:41:31 PM 32.9350 -97.1660 360° North 268 308 7,900 -1,179 Descending FlightAware ADS-B
Sat 08:41:57 PM 32.9660 -97.1640 North 266 306 7,400 -1,200 Descending FlightAware ADS-B
Sat 08:42:21 PM 32.9960 -97.1580 10° North 264 304 6,900 -1,135 Descending FlightAware ADS-B
Sat 08:43:11 PM 33.0540 -97.1470 North 259 298 6,000 -1,360 Descending FlightAware ADS-B
Sat 08:43:36 PM 33.0800 -97.1330 24° Northeast 254 292 5,200 -1,855 Descending FlightAware ADS-B
Sat 08:44:06 PM 33.1010 -97.1010 52° Northeast 238 274 4,300 -1,700 Descending FlightAware ADS-B
Sat 08:44:36 PM 33.0970 -97.0680 98° East 210 242 3,500 -1,571 Descending FlightAware ADS-B
Sat 08:44:48 PM 33.0850 -97.0600 151° Southeast 204 235 3,200 -789 Descending FlightAware ADS-B
Sat 08:45:14 PM 33.0600 -97.0550 170° South 204 235 3,000 -273 Descending FlightAware ADS-B
Sat 08:45:32 PM 33.0430 -97.0540 177° South 189 217 3,000 -571 Level FlightAware ADS-B
Sat 08:45:56 PM 33.0230 -97.0540 180° South 175 201 2,600 -947 Descending FlightAware ADS-B
Sat 08:46:10 PM 33.0130 -97.0540 180° South 157 181 2,400 -783 Descending FlightAware ADS-B
Sat 08:46:42 PM 32.9890 -97.0540 180° South 155 178 2,000 -737 Descending FlightAware ADS-B
Sat 08:47:07 PM 32.9730 -97.0540 180° South 139 160 1,700 -381 Descending FlightAware ADS-B
Sat 08:47:45 PM 32.9520 -97.0540 180° South 138 159 1,600 -158 Descending FlightAware ADS-B

Login

Don't have an account? Register now (free) for customized features, flight alerts, and more!